KDVN/DVN METAR and TAF weather

Enter ICAO airport designator
Station Type Date Time Source
KDVN METAR 2020/07/14 15:52 UTC NOAA

KDVN 141552Z AUTO 15008KT 10SM CLR 27/19 A2999 RMK AO2 SLP147 T02670189


Station Type Date Time Source
KDVN Decoded METAR 2020/07/14 15:52 UTC NOAA

DAVENPORT MUNICIPAL AIRPORT, IA, United States (KDVN) 41-37N 90-35W 228M
Jul 14, 2020 - 11:52 AM EDT / 2020.07.14 1552 UTC
Wind: from the SSE (150 degrees) at 9 MPH (8 KT):0
Visibility: 10 mile(s):0
Sky conditions: clear
Temperature: 80.1 F (26.7 C)
Dew Point: 66.0 F (18.9 C)
Relative Humidity: 62%
Pressure (altimeter): 29.99 in. Hg (1015 hPa)
ob: KDVN 141552Z AUTO 15008KT 10SM CLR 27/19 A2999 RMK AO2 SLP147 T02670189
cycle: 16

Station Type Date Time Source
KDVN TAF UTC NOAA

Error!

Example: see airport list